Main page
METAR-TAF:

METAR-TAF

Airports :

Simón Bolívar International Airport

Caracas, Venezuela

latitude: 10-36N, longitude: 066-59W, elevation: 43 m

Current weather observation

The report was made 1 hour and 16 minutes ago, at 22:06 UTC
Wind 2 kt from the East
Temperature 25°C
Humidity 74%
Pressure 1011 hPa
Visibility 10 km or more
Broken clouds at a height of 1600 ft

METAR: SVMI 212206Z 09002KT 9999 BKN016 25/20 Q1011

Time: 19:22 (23:22 UTC)

Forecast

The report was made 7 hours and 22 minutes ago, at 16:00 UTC
Forecast valid from 21 at 18 UTC to 22 at 18 UTC
Wind 6 kt from the North/Northeast
Visibility 10 km or more
Scattered clouds at a height of 1600 ft
Becoming
from 21 at 23 UTC to 22 at 04 UTC
Wind 5 kt from the East/Northeast
Visibility: 9000 m
Scattered clouds at a height of 1300 ft
Broken clouds at a height of 7000 ft
drizzle

TAF: SVMI 211600Z 2118/2218 02006KT 9999 SCT016 TX31/16Z TN22/07Z BECMG 2123/2204 07005KT 9000 DZ SCT013 BKN070

Weather observations and forecasts of more than 4000 airports (METAR and TAF reports).

The available stations are represented by yellow and red dots on the map.

Hover mouse over dot to see the name of the station.

Then click to see weather observations and forecasts.

To change the map : click on the green buttons with a black cross to zoom in, on the green button with a dash to zoom out, or on the green arrows for adjacent maps.


METAR-TAF: